Don's Testing Zone


Current Conditions
weather data
source:

National Weather Service
Clear Russellville, AR
Clear, 81°F
Sunday, May 20, 2018 8:53 AM CDT
Temperature: 81°F/27°C
Humidity: 70%
Barometer: 30.05in/1016.6mb Barometer Steady
Wind: CALM at 0mph/0kmh
View other cities:
Searcy | Little Rock | Hot Springs | Russellville | More...
Astronomical Conditions (Clear Sky Clock)
Searcy Clear Sky Clock
Find more weather in Little Rock, AR
    

Radar Images

NWS
    Wx Underground

KARK
   

Solar-Terrestrial Data

NWS METAR weather data

ADDS - METARS form results





Aviation Digital Data Service (ADDS) Output produced by METARs form (1356 UTC 20 May 2018) found at http://aviationweather.gov/adds/metars/ 

KRUE 201353Z AUTO 00000KT 10SM CLR 27/21 A3005 RMK AO2 SLP166 T02720211

KRUE 201253Z AUTO 00000KT 10SM BKN110 24/21 A3004 RMK AO2 SLP164 T02440211

KRUE 201153Z AUTO 00000KT 10SM CLR 23/21 A3002 RMK AO2 SLP158 T02280206 1023320217 53015

KRUE 201053Z AUTO 12003KT 10SM CLR 22/21 A2999 RMK AO2 SLP146 T02220206

KRUE 200953Z AUTO 09003KT 10SM CLR 22/21 A2999 RMK AO2 SLP146 T02170206

KRUE 200853Z AUTO 00000KT 10SM CLR 23/21 A2998 RMK AO2 SLP143 T02330211 51006

KRUE 200753Z AUTO 00000KT 10SM CLR 22/21 A2998 RMK AO2 SLP143 T02220211

KRUE 200653Z AUTO 00000KT 10SM CLR 22/21 A2997 RMK AO2 SLP141 T02170206

KRUE 200553Z AUTO 00000KT 10SM CLR 22/21 A2996 RMK AO2 SLP136 T02220206 1031120222 403280194 50002

KRUE 200453Z AUTO 00000KT 10SM CLR 23/21 A2996 RMK AO2 SLP138 T02280211

KRUE 200353Z AUTO 00000KT 10SM CLR 23/21 A2997 RMK AO2 SLP139 T02330211

KRUE 200253Z AUTO 00000KT 10SM CLR 26/21 A2995 RMK AO2 SLP134 T02560206 51020

KRUE 200153Z AUTO 00000KT 10SM CLR 26/21 A2993 RMK AO2 SLP128 T02560211

KRUE 200053Z AUTO 00000KT 10SM CLR 28/21 A2991 RMK AO2 SLP121 T02830206

KRUE 192353Z AUTO 21003KT 10SM CLR 31/19 A2989 RMK AO2 SLP114 T03110189 1032820306 53009

KRUE 192253Z AUTO 24006KT 10SM CLR 32/18 A2987 RMK AO2 SLP106 T03220183

KRUE 192153Z AUTO VRB05KT 10SM CLR 32/19 A2985 RMK AO2 SLP100 T03220189

KRUE 192053Z AUTO 19007G14KT 10SM CLR 32/17 A2987 RMK AO2 SLP105 T03220172 58011

KRUE 191953Z AUTO 23007KT 10SM CLR 33/18 A2988 RMK AO2 SLP109 T03280183

KRUE 191853Z AUTO VRB04KT 10SM CLR 32/19 A2989 RMK AO2 SLP114 T03220189

KRUE 191753Z AUTO VRB05KT 10SM CLR 31/18 A2990 RMK AO2 SLP116 T03110183 1031720217 58000

KRUE 191653Z AUTO 20004KT 10SM CLR 30/20 A2991 RMK AO2 SLP118 T03000200

KRUE 191553Z AUTO 12004KT 10SM CLR 29/22 A2990 RMK AO2 SLP117 T02890217

KRUE 191453Z AUTO 16004KT 10SM CLR 27/21 A2990 RMK AO2 SLP117 T02720211 51016